sensor_id;sensor_type;location;lat;lon;timestamp;P1;durP1;ratioP1;P2;durP2;ratioP2
51190;SDS011;37253;48.736;9.294;2023-04-24T00:00:03;1.08;;;0.55;;
51190;SDS011;37253;48.736;9.294;2023-04-24T00:02:09;1.70;;;0.40;;
51190;SDS011;37253;48.736;9.294;2023-04-24T00:04:10;1.00;;;0.50;;
51190;SDS011;37253;48.736;9.294;2023-04-24T00:06:13;4.95;;;0.40;;
51190;SDS011;37253;48.736;9.294;2023-04-24T00:08:16;1.38;;;0.40;;
51190;SDS011;37253;48.736;9.294;2023-04-24T00:10:17;0.70;;;0.30;;
51190;SDS011;37253;48.736;9.294;2023-04-24T00:12:17;0.63;;;0.40;;
51190;SDS011;37253;48.736;9.294;2023-04-24T00:14:17;1.10;;;0.40;;
51190;SDS011;37253;48.736;9.294;2023-04-24T00:16:18;1.27;;;0.45;;
51190;SDS011;37253;48.736;9.294;2023-04-24T00:18:18;0.45;;;0.40;;
51190;SDS011;37253;48.736;9.294;2023-04-24T00:20:18;1.17;;;0.50;;
51190;SDS011;37253;48.736;9.294;2023-04-24T00:22:19;3.33;;;0.50;;
51190;SDS011;37253;48.736;9.294;2023-04-24T00:24:20;0.50;;;0.43;;
51190;SDS011;37253;48.736;9.294;2023-04-24T00:26:21;1.02;;;0.35;;
51190;SDS011;37253;48.736;9.294;2023-04-24T00:28:21;0.70;;;0.40;;
51190;SDS011;37253;48.736;9.294;2023-04-24T00:30:21;0.70;;;0.40;;
51190;SDS011;37253;48.736;9.294;2023-04-24T00:32:22;0.80;;;0.30;;
51190;SDS011;37253;48.736;9.294;2023-04-24T00:34:22;0.50;;;0.32;;
51190;SDS011;37253;48.736;9.294;2023-04-24T00:36:22;0.32;;;0.30;;
51190;SDS011;37253;48.736;9.294;2023-04-24T00:38:23;0.95;;;0.47;;
51190;SDS011;37253;48.736;9.294;2023-04-24T00:40:23;0.50;;;0.32;;
51190;SDS011;37253;48.736;9.294;2023-04-24T00:42:24;1.25;;;0.30;;
51190;SDS011;37253;48.736;9.294;2023-04-24T00:44:24;0.82;;;0.30;;
51190;SDS011;37253;48.736;9.294;2023-04-24T00:46:25;0.93;;;0.40;;
51190;SDS011;37253;48.736;9.294;2023-04-24T00:48:25;1.20;;;0.40;;
51190;SDS011;37253;48.736;9.294;2023-04-24T00:50:26;0.77;;;0.43;;
51190;SDS011;37253;48.736;9.294;2023-04-24T00:52:27;0.40;;;0.40;;
51190;SDS011;37253;48.736;9.294;2023-04-24T00:54:28;0.60;;;0.40;;
51190;SDS011;37253;48.736;9.294;2023-04-24T00:56:28;0.60;;;0.40;;
51190;SDS011;37253;48.736;9.294;2023-04-24T00:58:29;1.10;;;0.43;;
51190;SDS011;37253;48.736;9.294;2023-04-24T01:00:30;0.70;;;0.30;;
51190;SDS011;37253;48.736;9.294;2023-04-24T01:02:31;0.40;;;0.40;;
51190;SDS011;37253;48.736;9.294;2023-04-24T01:04:34;0.77;;;0.30;;
51190;SDS011;37253;48.736;9.294;2023-04-24T01:06:34;0.40;;;0.30;;
51190;SDS011;37253;48.736;9.294;2023-04-24T01:08:35;0.70;;;0.30;;
51190;SDS011;37253;48.736;9.294;2023-04-24T01:10:35;0.63;;;0.32;;
51190;SDS011;37253;48.736;9.294;2023-04-24T01:12:36;1.13;;;0.40;;
51190;SDS011;37253;48.736;9.294;2023-04-24T01:14:37;1.25;;;0.30;;
51190;SDS011;37253;48.736;9.294;2023-04-24T01:16:38;1.30;;;0.30;;
51190;SDS011;37253;48.736;9.294;2023-04-24T01:18:39;0.93;;;0.50;;
51190;SDS011;37253;48.736;9.294;2023-04-24T01:20:39;0.63;;;0.20;;
51190;SDS011;37253;48.736;9.294;2023-04-24T01:22:41;0.40;;;0.30;;
51190;SDS011;37253;48.736;9.294;2023-04-24T01:24:42;3.30;;;0.40;;
51190;SDS011;37253;48.736;9.294;2023-04-24T01:26:43;0.45;;;0.40;;
51190;SDS011;37253;48.736;9.294;2023-04-24T01:28:43;0.60;;;0.32;;
51190;SDS011;37253;48.736;9.294;2023-04-24T01:30:43;0.50;;;0.30;;
51190;SDS011;37253;48.736;9.294;2023-04-24T01:32:44;0.65;;;0.30;;
51190;SDS011;37253;48.736;9.294;2023-04-24T01:34:45;0.77;;;0.57;;
51190;SDS011;37253;48.736;9.294;2023-04-24T01:36:46;0.50;;;0.40;;
51190;SDS011;37253;48.736;9.294;2023-04-24T01:38:47;0.38;;;0.30;;
51190;SDS011;37253;48.736;9.294;2023-04-24T01:40:48;0.22;;;0.20;;
51190;SDS011;37253;48.736;9.294;2023-04-24T01:42:49;0.52;;;0.30;;
51190;SDS011;37253;48.736;9.294;2023-04-24T01:44:50;0.63;;;0.30;;
51190;SDS011;37253;48.736;9.294;2023-04-24T01:46:51;1.02;;;0.40;;
51190;SDS011;37253;48.736;9.294;2023-04-24T01:48:51;0.38;;;0.30;;
51190;SDS011;37253;48.736;9.294;2023-04-24T01:50:52;0.95;;;0.40;;
51190;SDS011;37253;48.736;9.294;2023-04-24T01:52:52;1.25;;;0.30;;
51190;SDS011;37253;48.736;9.294;2023-04-24T01:54:53;0.52;;;0.40;;
51190;SDS011;37253;48.736;9.294;2023-04-24T01:56:53;0.75;;;0.30;;
51190;SDS011;37253;48.736;9.294;2023-04-24T01:58:53;0.75;;;0.32;;
51190;SDS011;37253;48.736;9.294;2023-04-24T02:00:56;1.42;;;0.40;;
51190;SDS011;37253;48.736;9.294;2023-04-24T02:02:56;0.70;;;0.30;;
51190;SDS011;37253;48.736;9.294;2023-04-24T02:04:57;0.40;;;0.30;;
51190;SDS011;37253;48.736;9.294;2023-04-24T02:06:57;0.50;;;0.20;;
51190;SDS011;37253;48.736;9.294;2023-04-24T02:09:00;0.52;;;0.30;;
51190;SDS011;37253;48.736;9.294;2023-04-24T02:13:02;0.80;;;0.35;;
51190;SDS011;37253;48.736;9.294;2023-04-24T02:15:02;0.38;;;0.30;;
51190;SDS011;37253;48.736;9.294;2023-04-24T02:17:03;0.63;;;0.35;;
51190;SDS011;37253;48.736;9.294;2023-04-24T02:19:04;0.47;;;0.30;;
51190;SDS011;37253;48.736;9.294;2023-04-24T02:21:05;0.30;;;0.30;;
51190;SDS011;37253;48.736;9.294;2023-04-24T02:23:05;0.50;;;0.30;;
51190;SDS011;37253;48.736;9.294;2023-04-24T02:25:06;0.30;;;0.28;;
51190;SDS011;37253;48.736;9.294;2023-04-24T02:27:06;0.47;;;0.32;;
51190;SDS011;37253;48.736;9.294;2023-04-24T02:29:06;0.40;;;0.32;;
51190;SDS011;37253;48.736;9.294;2023-04-24T02:31:07;0.50;;;0.30;;
51190;SDS011;37253;48.736;9.294;2023-04-24T02:33:07;1.10;;;0.20;;
51190;SDS011;37253;48.736;9.294;2023-04-24T02:35:08;0.30;;;0.30;;
51190;SDS011;37253;48.736;9.294;2023-04-24T02:37:08;0.85;;;0.25;;
51190;SDS011;37253;48.736;9.294;2023-04-24T02:39:09;0.20;;;0.20;;
51190;SDS011;37253;48.736;9.294;2023-04-24T02:41:09;0.75;;;0.30;;
51190;SDS011;37253;48.736;9.294;2023-04-24T02:43:09;0.55;;;0.25;;
51190;SDS011;37253;48.736;9.294;2023-04-24T02:45:10;0.85;;;0.30;;
51190;SDS011;37253;48.736;9.294;2023-04-24T02:47:10;0.77;;;0.52;;
51190;SDS011;37253;48.736;9.294;2023-04-24T02:49:10;0.85;;;0.30;;
51190;SDS011;37253;48.736;9.294;2023-04-24T02:51:11;0.30;;;0.30;;
51190;SDS011;37253;48.736;9.294;2023-04-24T02:53:12;0.43;;;0.22;;
51190;SDS011;37253;48.736;9.294;2023-04-24T02:55:13;0.52;;;0.30;;
51190;SDS011;37253;48.736;9.294;2023-04-24T02:57:13;0.90;;;0.30;;
51190;SDS011;37253;48.736;9.294;2023-04-24T02:59:13;0.50;;;0.32;;
51190;SDS011;37253;48.736;9.294;2023-04-24T03:01:14;0.40;;;0.30;;
51190;SDS011;37253;48.736;9.294;2023-04-24T03:03:14;0.75;;;0.20;;
51190;SDS011;37253;48.736;9.294;2023-04-24T03:05:15;0.43;;;0.30;;
51190;SDS011;37253;48.736;9.294;2023-04-24T03:07:15;0.75;;;0.20;;
51190;SDS011;37253;48.736;9.294;2023-04-24T03:09:16;0.20;;;0.20;;
51190;SDS011;37253;48.736;9.294;2023-04-24T03:11:16;1.13;;;0.30;;
51190;SDS011;37253;48.736;9.294;2023-04-24T03:13:16;0.43;;;0.20;;
51190;SDS011;37253;48.736;9.294;2023-04-24T03:15:17;0.30;;;0.20;;
51190;SDS011;37253;48.736;9.294;2023-04-24T03:17:17;0.47;;;0.22;;
51190;SDS011;37253;48.736;9.294;2023-04-24T03:19:17;0.25;;;0.25;;
51190;SDS011;37253;48.736;9.294;2023-04-24T03:21:18;0.30;;;0.30;;
51190;SDS011;37253;48.736;9.294;2023-04-24T03:23:18;0.60;;;0.32;;
51190;SDS011;37253;48.736;9.294;2023-04-24T03:25:18;0.40;;;0.30;;
51190;SDS011;37253;48.736;9.294;2023-04-24T03:27:19;0.30;;;0.30;;
51190;SDS011;37253;48.736;9.294;2023-04-24T03:29:19;0.95;;;0.30;;
51190;SDS011;37253;48.736;9.294;2023-04-24T03:31:19;0.77;;;0.30;;
51190;SDS011;37253;48.736;9.294;2023-04-24T03:33:21;0.20;;;0.20;;
51190;SDS011;37253;48.736;9.294;2023-04-24T03:35:21;0.55;;;0.28;;
51190;SDS011;37253;48.736;9.294;2023-04-24T03:37:21;0.40;;;0.30;;
51190;SDS011;37253;48.736;9.294;2023-04-24T03:39:22;0.40;;;0.30;;
51190;SDS011;37253;48.736;9.294;2023-04-24T03:41:22;0.60;;;0.30;;
51190;SDS011;37253;48.736;9.294;2023-04-24T03:43:23;0.43;;;0.30;;
51190;SDS011;37253;48.736;9.294;2023-04-24T03:45:23;0.30;;;0.30;;
51190;SDS011;37253;48.736;9.294;2023-04-24T03:47:24;2.78;;;0.40;;
51190;SDS011;37253;48.736;9.294;2023-04-24T03:49:24;0.40;;;0.30;;
51190;SDS011;37253;48.736;9.294;2023-04-24T03:51:25;1.45;;;0.50;;
51190;SDS011;37253;48.736;9.294;2023-04-24T03:53:27;1.30;;;0.40;;
51190;SDS011;37253;48.736;9.294;2023-04-24T03:55:28;0.40;;;0.25;;
51190;SDS011;37253;48.736;9.294;2023-04-24T03:57:28;1.00;;;0.20;;
51190;SDS011;37253;48.736;9.294;2023-04-24T03:59:28;0.63;;;0.30;;
51190;SDS011;37253;48.736;9.294;2023-04-24T04:01:28;0.93;;;0.30;;
51190;SDS011;37253;48.736;9.294;2023-04-24T04:03:30;0.65;;;0.30;;
51190;SDS011;37253;48.736;9.294;2023-04-24T04:05:30;0.30;;;0.30;;
51190;SDS011;37253;48.736;9.294;2023-04-24T04:07:31;0.43;;;0.40;;
51190;SDS011;37253;48.736;9.294;2023-04-24T04:09:31;0.40;;;0.30;;
51190;SDS011;37253;48.736;9.294;2023-04-24T04:11:33;0.70;;;0.20;;
51190;SDS011;37253;48.736;9.294;2023-04-24T04:13:33;0.35;;;0.22;;
51190;SDS011;37253;48.736;9.294;2023-04-24T04:15:33;0.75;;;0.28;;
51190;SDS011;37253;48.736;9.294;2023-04-24T04:17:34;0.52;;;0.20;;
51190;SDS011;37253;48.736;9.294;2023-04-24T04:19:34;0.45;;;0.30;;
51190;SDS011;37253;48.736;9.294;2023-04-24T04:21:34;1.05;;;0.20;;
51190;SDS011;37253;48.736;9.294;2023-04-24T04:23:35;0.35;;;0.20;;
51190;SDS011;37253;48.736;9.294;2023-04-24T04:25:35;0.73;;;0.30;;
51190;SDS011;37253;48.736;9.294;2023-04-24T04:27:35;0.52;;;0.30;;
51190;SDS011;37253;48.736;9.294;2023-04-24T04:29:36;0.50;;;0.30;;
51190;SDS011;37253;48.736;9.294;2023-04-24T04:31:36;0.45;;;0.20;;
51190;SDS011;37253;48.736;9.294;2023-04-24T04:33:37;0.28;;;0.20;;
51190;SDS011;37253;48.736;9.294;2023-04-24T04:35:39;0.80;;;0.30;;
51190;SDS011;37253;48.736;9.294;2023-04-24T04:37:39;0.20;;;0.20;;
51190;SDS011;37253;48.736;9.294;2023-04-24T04:39:40;0.22;;;0.15;;
51190;SDS011;37253;48.736;9.294;2023-04-24T04:41:40;0.68;;;0.20;;
51190;SDS011;37253;48.736;9.294;2023-04-24T04:43:41;0.73;;;0.20;;
51190;SDS011;37253;48.736;9.294;2023-04-24T04:45:42;0.45;;;0.20;;
51190;SDS011;37253;48.736;9.294;2023-04-24T04:47:43;2.97;;;0.40;;
51190;SDS011;37253;48.736;9.294;2023-04-24T04:49:44;2.95;;;0.35;;
51190;SDS011;37253;48.736;9.294;2023-04-24T04:51:44;3.15;;;0.40;;
51190;SDS011;37253;48.736;9.294;2023-04-24T04:53:44;4.03;;;0.50;;
51190;SDS011;37253;48.736;9.294;2023-04-24T04:55:45;1.88;;;0.30;;
51190;SDS011;37253;48.736;9.294;2023-04-24T04:57:46;2.97;;;0.50;;
51190;SDS011;37253;48.736;9.294;2023-04-24T04:59:47;1.52;;;0.68;;
51190;SDS011;37253;48.736;9.294;2023-04-24T05:01:47;1.30;;;0.32;;
51190;SDS011;37253;48.736;9.294;2023-04-24T05:03:48;3.30;;;0.47;;
51190;SDS011;37253;48.736;9.294;2023-04-24T05:05:48;1.42;;;0.40;;
51190;SDS011;37253;48.736;9.294;2023-04-24T05:07:48;1.50;;;0.40;;
51190;SDS011;37253;48.736;9.294;2023-04-24T05:09:48;2.38;;;0.35;;
51190;SDS011;37253;48.736;9.294;2023-04-24T05:11:49;2.05;;;0.50;;
51190;SDS011;37253;48.736;9.294;2023-04-24T05:13:49;1.98;;;0.40;;
51190;SDS011;37253;48.736;9.294;2023-04-24T05:15:49;4.63;;;0.40;;
51190;SDS011;37253;48.736;9.294;2023-04-24T05:17:50;1.98;;;0.35;;
51190;SDS011;37253;48.736;9.294;2023-04-24T05:19:50;1.13;;;0.40;;
51190;SDS011;37253;48.736;9.294;2023-04-24T05:21:51;0.80;;;0.40;;
51190;SDS011;37253;48.736;9.294;2023-04-24T05:23:51;3.70;;;0.40;;
51190;SDS011;37253;48.736;9.294;2023-04-24T05:25:51;3.22;;;0.40;;
51190;SDS011;37253;48.736;9.294;2023-04-24T05:27:51;1.20;;;0.30;;
51190;SDS011;37253;48.736;9.294;2023-04-24T05:29:53;1.75;;;0.30;;
51190;SDS011;37253;48.736;9.294;2023-04-24T05:31:53;1.83;;;0.40;;
51190;SDS011;37253;48.736;9.294;2023-04-24T05:33:54;2.65;;;0.70;;
51190;SDS011;37253;48.736;9.294;2023-04-24T05:35:54;2.55;;;0.40;;
51190;SDS011;37253;48.736;9.294;2023-04-24T05:37:55;3.70;;;0.50;;
51190;SDS011;37253;48.736;9.294;2023-04-24T05:39:55;1.95;;;0.40;;
51190;SDS011;37253;48.736;9.294;2023-04-24T05:41:56;1.35;;;0.40;;
51190;SDS011;37253;48.736;9.294;2023-04-24T05:43:57;3.17;;;0.50;;
51190;SDS011;37253;48.736;9.294;2023-04-24T05:45:58;3.97;;;0.50;;
51190;SDS011;37253;48.736;9.294;2023-04-24T05:47:58;2.47;;;0.43;;
51190;SDS011;37253;48.736;9.294;2023-04-24T05:49:58;2.83;;;0.30;;
51190;SDS011;37253;48.736;9.294;2023-04-24T05:51:59;5.68;;;0.45;;
51190;SDS011;37253;48.736;9.294;2023-04-24T05:53:59;5.10;;;0.40;;
51190;SDS011;37253;48.736;9.294;2023-04-24T05:56:00;3.78;;;0.40;;
51190;SDS011;37253;48.736;9.294;2023-04-24T05:58:00;2.25;;;0.50;;
51190;SDS011;37253;48.736;9.294;2023-04-24T06:00:01;3.72;;;0.60;;
51190;SDS011;37253;48.736;9.294;2023-04-24T06:02:01;3.47;;;0.43;;
51190;SDS011;37253;48.736;9.294;2023-04-24T06:04:02;3.40;;;0.50;;
51190;SDS011;37253;48.736;9.294;2023-04-24T06:06:03;2.42;;;0.60;;
51190;SDS011;37253;48.736;9.294;2023-04-24T06:08:03;2.58;;;0.52;;
51190;SDS011;37253;48.736;9.294;2023-04-24T06:10:04;6.32;;;0.60;;
51190;SDS011;37253;48.736;9.294;2023-04-24T06:12:05;5.03;;;0.70;;
51190;SDS011;37253;48.736;9.294;2023-04-24T06:14:07;2.17;;;0.60;;
51190;SDS011;37253;48.736;9.294;2023-04-24T06:16:07;5.20;;;0.57;;
51190;SDS011;37253;48.736;9.294;2023-04-24T06:18:07;3.75;;;0.63;;
51190;SDS011;37253;48.736;9.294;2023-04-24T06:20:10;2.80;;;0.60;;
51190;SDS011;37253;48.736;9.294;2023-04-24T06:22:11;3.67;;;0.70;;
51190;SDS011;37253;48.736;9.294;2023-04-24T06:24:13;3.50;;;0.70;;
51190;SDS011;37253;48.736;9.294;2023-04-24T06:26:14;4.05;;;0.63;;
51190;SDS011;37253;48.736;9.294;2023-04-24T06:28:14;2.15;;;0.63;;
51190;SDS011;37253;48.736;9.294;2023-04-24T06:30:15;5.78;;;0.80;;
51190;SDS011;37253;48.736;9.294;2023-04-24T06:32:15;3.78;;;0.70;;
51190;SDS011;37253;48.736;9.294;2023-04-24T06:34:15;8.32;;;1.02;;
51190;SDS011;37253;48.736;9.294;2023-04-24T06:36:16;6.95;;;0.80;;
51190;SDS011;37253;48.736;9.294;2023-04-24T06:38:16;12.80;;;1.13;;
51190;SDS011;37253;48.736;9.294;2023-04-24T06:40:17;4.93;;;0.85;;
51190;SDS011;37253;48.736;9.294;2023-04-24T06:42:18;2.97;;;0.65;;
51190;SDS011;37253;48.736;9.294;2023-04-24T06:44:20;4.20;;;0.85;;
51190;SDS011;37253;48.736;9.294;2023-04-24T06:46:21;3.47;;;0.75;;
51190;SDS011;37253;48.736;9.294;2023-04-24T06:48:26;4.20;;;0.80;;
51190;SDS011;37253;48.736;9.294;2023-04-24T06:50:26;2.55;;;0.68;;
51190;SDS011;37253;48.736;9.294;2023-04-24T06:52:26;10.90;;;0.90;;
51190;SDS011;37253;48.736;9.294;2023-04-24T06:54:27;3.38;;;0.68;;
51190;SDS011;37253;48.736;9.294;2023-04-24T06:56:27;5.10;;;0.90;;
51190;SDS011;37253;48.736;9.294;2023-04-24T06:58:29;4.97;;;0.95;;
51190;SDS011;37253;48.736;9.294;2023-04-24T07:00:30;6.18;;;1.02;;
51190;SDS011;37253;48.736;9.294;2023-04-24T07:02:30;5.50;;;0.95;;
51190;SDS011;37253;48.736;9.294;2023-04-24T07:04:31;3.30;;;0.60;;
51190;SDS011;37253;48.736;9.294;2023-04-24T07:06:31;8.80;;;1.10;;
51190;SDS011;37253;48.736;9.294;2023-04-24T07:08:32;6.05;;;0.80;;
51190;SDS011;37253;48.736;9.294;2023-04-24T07:10:33;6.60;;;0.90;;
51190;SDS011;37253;48.736;9.294;2023-04-24T07:12:35;5.30;;;0.88;;
51190;SDS011;37253;48.736;9.294;2023-04-24T07:14:36;2.53;;;0.70;;
51190;SDS011;37253;48.736;9.294;2023-04-24T07:16:37;2.05;;;0.70;;
51190;SDS011;37253;48.736;9.294;2023-04-24T07:18:38;5.10;;;1.00;;
51190;SDS011;37253;48.736;9.294;2023-04-24T07:20:39;4.23;;;0.70;;
51190;SDS011;37253;48.736;9.294;2023-04-24T07:22:40;4.30;;;0.70;;
51190;SDS011;37253;48.736;9.294;2023-04-24T07:24:40;4.95;;;0.68;;
51190;SDS011;37253;48.736;9.294;2023-04-24T07:26:40;2.58;;;0.73;;
51190;SDS011;37253;48.736;9.294;2023-04-24T07:28:41;1.77;;;0.50;;
51190;SDS011;37253;48.736;9.294;2023-04-24T07:30:41;2.38;;;0.60;;
51190;SDS011;37253;48.736;9.294;2023-04-24T07:32:41;3.25;;;0.70;;
51190;SDS011;37253;48.736;9.294;2023-04-24T07:34:42;4.25;;;0.80;;
51190;SDS011;37253;48.736;9.294;2023-04-24T07:36:42;2.10;;;0.70;;
51190;SDS011;37253;48.736;9.294;2023-04-24T07:38:42;4.82;;;0.70;;
51190;SDS011;37253;48.736;9.294;2023-04-24T07:40:43;2.80;;;0.82;;
51190;SDS011;37253;48.736;9.294;2023-04-24T07:42:43;4.40;;;0.80;;
51190;SDS011;37253;48.736;9.294;2023-04-24T07:44:43;3.80;;;0.80;;
51190;SDS011;37253;48.736;9.294;2023-04-24T07:46:44;3.88;;;0.80;;
51190;SDS011;37253;48.736;9.294;2023-04-24T07:48:44;3.30;;;1.00;;
51190;SDS011;37253;48.736;9.294;2023-04-24T07:50:46;3.80;;;0.93;;
51190;SDS011;37253;48.736;9.294;2023-04-24T07:52:46;5.85;;;0.88;;
51190;SDS011;37253;48.736;9.294;2023-04-24T07:54:47;4.05;;;0.75;;
51190;SDS011;37253;48.736;9.294;2023-04-24T07:56:47;3.03;;;0.85;;
51190;SDS011;37253;48.736;9.294;2023-04-24T07:58:48;1.90;;;0.70;;
51190;SDS011;37253;48.736;9.294;2023-04-24T08:00:48;3.53;;;0.65;;
51190;SDS011;37253;48.736;9.294;2023-04-24T08:02:48;4.68;;;0.98;;
51190;SDS011;37253;48.736;9.294;2023-04-24T08:04:49;9.30;;;0.90;;
51190;SDS011;37253;48.736;9.294;2023-04-24T08:06:49;4.38;;;0.70;;
51190;SDS011;37253;48.736;9.294;2023-04-24T08:08:49;3.33;;;0.70;;
51190;SDS011;37253;48.736;9.294;2023-04-24T08:10:51;6.57;;;0.70;;
51190;SDS011;37253;48.736;9.294;2023-04-24T08:12:51;2.35;;;0.57;;
51190;SDS011;37253;48.736;9.294;2023-04-24T08:14:52;3.22;;;1.00;;
51190;SDS011;37253;48.736;9.294;2023-04-24T08:16:53;8.43;;;0.75;;
51190;SDS011;37253;48.736;9.294;2023-04-24T08:18:55;7.35;;;0.80;;
51190;SDS011;37253;48.736;9.294;2023-04-24T08:20:55;2.40;;;0.85;;
51190;SDS011;37253;48.736;9.294;2023-04-24T08:23:01;5.97;;;0.77;;
51190;SDS011;37253;48.736;9.294;2023-04-24T08:25:01;7.82;;;0.90;;
51190;SDS011;37253;48.736;9.294;2023-04-24T08:27:02;7.25;;;0.70;;
51190;SDS011;37253;48.736;9.294;2023-04-24T08:29:02;4.15;;;0.98;;
51190;SDS011;37253;48.736;9.294;2023-04-24T08:31:03;3.63;;;0.73;;
51190;SDS011;37253;48.736;9.294;2023-04-24T08:33:03;5.75;;;0.50;;
51190;SDS011;37253;48.736;9.294;2023-04-24T08:35:04;4.30;;;0.98;;
51190;SDS011;37253;48.736;9.294;2023-04-24T08:37:04;2.20;;;0.60;;
51190;SDS011;37253;48.736;9.294;2023-04-24T08:39:05;2.22;;;0.60;;
51190;SDS011;37253;48.736;9.294;2023-04-24T08:41:05;2.47;;;0.65;;
51190;SDS011;37253;48.736;9.294;2023-04-24T08:43:05;1.38;;;0.57;;
51190;SDS011;37253;48.736;9.294;2023-04-24T08:45:06;1.73;;;0.60;;
51190;SDS011;37253;48.736;9.294;2023-04-24T08:47:07;4.22;;;0.70;;
51190;SDS011;37253;48.736;9.294;2023-04-24T08:49:08;2.05;;;0.63;;
51190;SDS011;37253;48.736;9.294;2023-04-24T08:51:08;2.88;;;0.70;;
51190;SDS011;37253;48.736;9.294;2023-04-24T08:53:09;1.52;;;0.60;;
51190;SDS011;37253;48.736;9.294;2023-04-24T08:55:09;1.50;;;0.57;;
51190;SDS011;37253;48.736;9.294;2023-04-24T08:57:10;2.10;;;0.80;;
51190;SDS011;37253;48.736;9.294;2023-04-24T08:59:11;5.03;;;0.65;;
51190;SDS011;37253;48.736;9.294;2023-04-24T09:01:12;1.55;;;0.55;;
51190;SDS011;37253;48.736;9.294;2023-04-24T09:03:16;2.45;;;0.60;;
51190;SDS011;37253;48.736;9.294;2023-04-24T09:05:17;2.05;;;0.63;;
51190;SDS011;37253;48.736;9.294;2023-04-24T09:07:19;1.58;;;0.85;;
51190;SDS011;37253;48.736;9.294;2023-04-24T09:09:19;1.58;;;0.60;;
51190;SDS011;37253;48.736;9.294;2023-04-24T09:11:20;3.95;;;0.80;;
51190;SDS011;37253;48.736;9.294;2023-04-24T09:13:20;1.42;;;0.60;;
51190;SDS011;37253;48.736;9.294;2023-04-24T09:15:21;2.80;;;0.60;;
51190;SDS011;37253;48.736;9.294;2023-04-24T09:17:21;2.75;;;0.60;;
51190;SDS011;37253;48.736;9.294;2023-04-24T09:19:22;2.38;;;0.63;;
51190;SDS011;37253;48.736;9.294;2023-04-24T09:21:23;4.30;;;0.80;;
51190;SDS011;37253;48.736;9.294;2023-04-24T09:23:25;3.10;;;0.70;;
51190;SDS011;37253;48.736;9.294;2023-04-24T09:25:31;7.78;;;0.73;;
51190;SDS011;37253;48.736;9.294;2023-04-24T09:27:33;2.30;;;0.70;;
51190;SDS011;37253;48.736;9.294;2023-04-24T09:29:33;3.10;;;0.80;;
51190;SDS011;37253;48.736;9.294;2023-04-24T09:31:34;2.42;;;0.57;;
51190;SDS011;37253;48.736;9.294;2023-04-24T09:33:35;0.82;;;0.50;;
51190;SDS011;37253;48.736;9.294;2023-04-24T09:35:36;1.85;;;0.40;;
51190;SDS011;37253;48.736;9.294;2023-04-24T09:37:40;1.67;;;0.50;;
51190;SDS011;37253;48.736;9.294;2023-04-24T09:40:06;4.50;;;0.55;;
51190;SDS011;37253;48.736;9.294;2023-04-24T09:42:07;1.50;;;0.60;;
51190;SDS011;37253;48.736;9.294;2023-04-24T09:44:15;3.30;;;0.60;;
51190;SDS011;37253;48.736;9.294;2023-04-24T09:46:16;1.63;;;0.50;;
51190;SDS011;37253;48.736;9.294;2023-04-24T09:48:18;2.83;;;0.57;;
51190;SDS011;37253;48.736;9.294;2023-04-24T09:50:18;1.13;;;0.50;;
51190;SDS011;37253;48.736;9.294;2023-04-24T09:52:19;0.73;;;0.45;;
51190;SDS011;37253;48.736;9.294;2023-04-24T09:54:20;4.25;;;0.60;;
51190;SDS011;37253;48.736;9.294;2023-04-24T09:56:21;2.03;;;0.70;;
51190;SDS011;37253;48.736;9.294;2023-04-24T09:58:24;2.55;;;0.52;;
51190;SDS011;37253;48.736;9.294;2023-04-24T10:02:30;1.42;;;0.50;;
51190;SDS011;37253;48.736;9.294;2023-04-24T10:04:31;1.90;;;0.60;;
51190;SDS011;37253;48.736;9.294;2023-04-24T10:06:35;1.65;;;0.50;;
51190;SDS011;37253;48.736;9.294;2023-04-24T10:08:36;1.67;;;0.70;;
51190;SDS011;37253;48.736;9.294;2023-04-24T10:10:41;0.68;;;0.47;;
51190;SDS011;37253;48.736;9.294;2023-04-24T10:12:42;1.33;;;0.50;;
51190;SDS011;37253;48.736;9.294;2023-04-24T10:14:43;1.45;;;0.55;;
51190;SDS011;37253;48.736;9.294;2023-04-24T10:16:45;3.08;;;0.35;;
51190;SDS011;37253;48.736;9.294;2023-04-24T10:18:48;1.02;;;0.60;;
51190;SDS011;37253;48.736;9.294;2023-04-24T10:20:48;2.45;;;0.40;;
51190;SDS011;37253;48.736;9.294;2023-04-24T10:22:49;1.60;;;0.60;;
51190;SDS011;37253;48.736;9.294;2023-04-24T10:24:53;1.80;;;0.47;;
51190;SDS011;37253;48.736;9.294;2023-04-24T10:26:53;1.70;;;0.50;;
51190;SDS011;37253;48.736;9.294;2023-04-24T10:28:54;0.52;;;0.45;;
51190;SDS011;37253;48.736;9.294;2023-04-24T10:30:57;0.95;;;0.47;;
51190;SDS011;37253;48.736;9.294;2023-04-24T10:32:59;2.40;;;0.50;;
51190;SDS011;37253;48.736;9.294;2023-04-24T10:35:00;0.88;;;0.40;;
51190;SDS011;37253;48.736;9.294;2023-04-24T10:37:00;1.05;;;0.35;;
51190;SDS011;37253;48.736;9.294;2023-04-24T10:39:02;0.88;;;0.47;;
51190;SDS011;37253;48.736;9.294;2023-04-24T10:41:10;1.15;;;0.50;;
51190;SDS011;37253;48.736;9.294;2023-04-24T10:43:19;2.20;;;0.52;;
51190;SDS011;37253;48.736;9.294;2023-04-24T10:45:20;3.40;;;0.50;;
51190;SDS011;37253;48.736;9.294;2023-04-24T10:47:21;1.33;;;0.55;;
51190;SDS011;37253;48.736;9.294;2023-04-24T10:49:28;1.27;;;0.55;;
51190;SDS011;37253;48.736;9.294;2023-04-24T10:51:49;2.90;;;0.50;;
51190;SDS011;37253;48.736;9.294;2023-04-24T10:53:50;2.17;;;0.50;;
51190;SDS011;37253;48.736;9.294;2023-04-24T10:55:52;1.23;;;0.40;;
51190;SDS011;37253;48.736;9.294;2023-04-24T10:58:01;0.80;;;0.40;;
51190;SDS011;37253;48.736;9.294;2023-04-24T11:00:15;1.85;;;0.50;;
51190;SDS011;37253;48.736;9.294;2023-04-24T11:02:23;2.95;;;0.52;;
51190;SDS011;37253;48.736;9.294;2023-04-24T11:04:36;1.40;;;0.60;;
51190;SDS011;37253;48.736;9.294;2023-04-24T11:06:36;1.98;;;0.60;;
51190;SDS011;37253;48.736;9.294;2023-04-24T11:08:38;0.60;;;0.40;;
51190;SDS011;37253;48.736;9.294;2023-04-24T11:10:41;3.15;;;0.50;;
51190;SDS011;37253;48.736;9.294;2023-04-24T11:12:44;0.82;;;0.40;;
51190;SDS011;37253;48.736;9.294;2023-04-24T11:16:57;0.85;;;0.50;;
51190;SDS011;37253;48.736;9.294;2023-04-24T11:19:00;1.58;;;0.47;;
51190;SDS011;37253;48.736;9.294;2023-04-24T11:21:10;0.60;;;0.40;;
51190;SDS011;37253;48.736;9.294;2023-04-24T11:23:12;0.95;;;0.60;;
51190;SDS011;37253;48.736;9.294;2023-04-24T11:25:13;0.82;;;0.52;;
51190;SDS011;37253;48.736;9.294;2023-04-24T11:27:19;0.75;;;0.50;;
51190;SDS011;37253;48.736;9.294;2023-04-24T11:29:20;2.03;;;0.70;;
51190;SDS011;37253;48.736;9.294;2023-04-24T11:31:34;0.63;;;0.50;;
51190;SDS011;37253;48.736;9.294;2023-04-24T11:33:49;1.67;;;0.50;;
51190;SDS011;37253;48.736;9.294;2023-04-24T11:35:50;0.98;;;0.50;;
51190;SDS011;37253;48.736;9.294;2023-04-24T11:37:52;0.68;;;0.40;;
51190;SDS011;37253;48.736;9.294;2023-04-24T11:39:53;0.43;;;0.40;;
51190;SDS011;37253;48.736;9.294;2023-04-24T11:42:01;0.73;;;0.45;;
51190;SDS011;37253;48.736;9.294;2023-04-24T11:44:02;1.15;;;0.50;;
51190;SDS011;37253;48.736;9.294;2023-04-24T11:46:03;1.23;;;0.40;;
51190;SDS011;37253;48.736;9.294;2023-04-24T11:48:04;0.70;;;0.40;;
51190;SDS011;37253;48.736;9.294;2023-04-24T11:50:05;1.65;;;0.40;;
51190;SDS011;37253;48.736;9.294;2023-04-24T11:52:07;0.60;;;0.40;;
51190;SDS011;37253;48.736;9.294;2023-04-24T11:54:07;0.43;;;0.40;;
51190;SDS011;37253;48.736;9.294;2023-04-24T11:56:11;2.08;;;0.30;;
51190;SDS011;37253;48.736;9.294;2023-04-24T11:58:11;0.80;;;0.50;;
51190;SDS011;37253;48.736;9.294;2023-04-24T12:00:15;0.65;;;0.40;;
51190;SDS011;37253;48.736;9.294;2023-04-24T12:02:20;0.57;;;0.50;;
51190;SDS011;37253;48.736;9.294;2023-04-24T12:04:21;1.58;;;0.60;;
51190;SDS011;37253;48.736;9.294;2023-04-24T12:06:22;0.82;;;0.50;;
51190;SDS011;37253;48.736;9.294;2023-04-24T12:08:28;0.57;;;0.50;;
51190;SDS011;37253;48.736;9.294;2023-04-24T12:10:29;0.75;;;0.40;;
51190;SDS011;37253;48.736;9.294;2023-04-24T12:12:31;0.60;;;0.40;;
51190;SDS011;37253;48.736;9.294;2023-04-24T12:14:31;1.00;;;0.50;;
51190;SDS011;37253;48.736;9.294;2023-04-24T12:16:32;0.85;;;0.40;;